Time;durP1;ratioP1;P1;durP2;ratioP2;P2;SDS_P1;SDS_P2;PMS_P1;PMS_P2;Temp;Humidity;BMP_temperature;BMP_pressure;BME280_temperature;BME280_humidity;BME280_pressure;Samples;Min_cycle;Max_cycle;Signal;HPM_P1;HPM_P2
2022/06/21 00:01:00;;;;;;;9.77;3.67;;;;;;;15.35;78.79;101265.16;5018892;28;20153;-71
2022/06/21 00:03:27;;;;;;;9.85;4.10;;;;;;;15.31;80.37;101253.28;5025084;28;20045;-71
2022/06/21 00:05:54;;;;;;;9.23;3.92;;;;;;;15.33;80.02;101259.19;5031442;28;20049;-71
2022/06/21 00:08:28;;;;;;;9.57;4.00;;;;;;;15.30;79.62;101251.66;5024551;28;20156;-72
2022/06/21 00:10:55;;;;;;;8.98;4.20;;;;;;;15.19;80.27;101267.72;5022403;28;20049;-72
2022/06/21 00:13:28;;;;;;;12.05;4.00;;;;;;;15.04;80.37;101271.91;5024285;28;20071;-71
2022/06/21 00:16:05;;;;;;;10.52;4.10;;;;;;;15.04;81.52;101265.53;5025117;28;20056;-72
2022/06/21 00:18:35;;;;;;;10.80;4.35;;;;;;;15.06;82.34;101269.47;5021823;28;20049;-71
2022/06/21 00:21:01;;;;;;;13.15;4.53;;;;;;;15.03;81.53;101281.47;5020643;28;20048;-72
2022/06/21 00:23:31;;;;;;;11.95;5.03;;;;;;;14.93;80.60;101276.78;5028841;28;20048;-71
2022/06/21 00:25:59;;;;;;;11.43;4.60;;;;;;;14.97;84.28;101285.91;5028715;28;20801;-72
2022/06/21 00:28:26;;;;;;;12.43;4.18;;;;;;;15.02;84.64;101276.31;5027533;28;20522;-72
2022/06/21 00:30:54;;;;;;;8.77;4.10;;;;;;;15.01;83.77;101272.72;5029733;28;20057;-71
2022/06/21 00:33:23;;;;;;;13.00;4.30;;;;;;;14.98;82.52;101278.31;5021125;28;20080;-72
2022/06/21 00:35:53;;;;;;;10.07;4.28;;;;;;;14.90;81.82;101266.47;5031632;28;20741;-72
2022/06/21 00:38:27;;;;;;;10.77;4.40;;;;;;;14.84;84.14;101275.69;5026606;28;20089;-72
2022/06/21 00:40:57;;;;;;;10.13;4.60;;;;;;;14.81;83.50;101273.72;5032715;28;20056;-72
2022/06/21 00:43:29;;;;;;;12.40;4.13;;;;;;;14.74;83.18;101277.38;5027374;28;20064;-72
2022/06/21 00:45:56;;;;;;;8.32;4.32;;;;;;;14.66;85.27;101284.22;5023766;28;20119;-72
2022/06/21 00:48:39;;;;;;;11.27;4.43;;;;;;;14.59;85.09;101289.84;5023871;28;20059;-72
2022/06/21 00:51:08;;;;;;;12.05;4.30;;;;;;;14.53;84.66;101293.47;5021521;28;20902;-71
2022/06/21 00:53:40;;;;;;;12.00;4.63;;;;;;;14.50;85.15;101278.38;5031113;28;20053;-72
2022/06/21 00:56:12;;;;;;;8.90;4.95;;;;;;;14.55;88.94;101277.91;5025538;28;20052;-72
2022/06/21 00:58:39;;;;;;;10.00;4.00;;;;;;;14.60;87.63;101273.91;5026546;28;20044;-72
2022/06/21 01:01:21;;;;;;;12.35;4.43;;;;;;;14.54;88.11;101270.78;5020104;28;20059;-72
2022/06/21 01:03:55;;;;;;;10.60;4.05;;;;;;;14.50;85.75;101266.44;5025994;28;20900;-71
2022/06/21 01:06:26;;;;;;;9.95;4.35;;;;;;;14.43;85.58;101261.72;5028149;28;20053;-71
2022/06/21 01:09:01;;;;;;;11.57;4.32;;;;;;;14.30;86.47;101257.84;5029248;28;20071;-71
2022/06/21 01:11:34;;;;;;;13.85;4.65;;;;;;;14.20;88.25;101257.88;5026696;28;20041;-71
2022/06/21 01:14:01;;;;;;;11.32;4.55;;;;;;;14.15;89.59;101259.13;5027484;28;20407;-71
2022/06/21 01:16:32;;;;;;;11.52;4.68;;;;;;;14.13;88.69;101261.53;5025975;28;20069;-72
2022/06/21 01:19:01;;;;;;;10.70;4.43;;;;;;;14.13;90.66;101263.50;5028985;28;20076;-71
2022/06/21 01:21:30;;;;;;;9.45;4.40;;;;;;;14.12;90.52;101268.31;5027694;28;20102;-71
2022/06/21 01:24:23;;;;;;;12.40;4.72;;;;;;;14.11;89.03;101268.72;5033131;28;20140;-71
2022/06/21 01:27:00;;;;;;;12.10;4.70;;;;;;;14.03;90.02;101265.16;5021220;28;20049;-71
2022/06/21 01:29:31;;;;;;;10.43;4.50;;;;;;;14.02;91.51;101255.25;5027610;28;20084;-71
2022/06/21 01:32:05;;;;;;;9.55;4.20;;;;;;;14.00;91.39;101257.63;5027735;28;20041;-71
2022/06/21 01:34:33;;;;;;;8.65;4.25;;;;;;;13.98;92.43;101243.34;5028338;28;20242;-71
2022/06/21 01:37:02;;;;;;;15.10;4.35;;;;;;;13.96;90.07;101244.94;5016023;28;20061;-71
2022/06/21 01:39:46;;;;;;;8.27;3.95;;;;;;;13.86;90.53;101254.16;5021992;28;20063;-71
2022/06/21 01:42:16;;;;;;;8.00;3.85;;;;;;;13.82;92.02;101251.41;5022026;28;20041;-71
2022/06/21 01:44:48;;;;;;;11.85;3.95;;;;;;;13.78;91.82;101250.63;5030204;28;20182;-72
2022/06/21 01:47:18;;;;;;;7.80;4.13;;;;;;;13.81;93.85;101249.03;5031098;28;20059;-72
2022/06/21 01:50:01;;;;;;;9.52;4.40;;;;;;;13.75;93.83;101243.09;5029321;28;20059;-72
2022/06/21 01:52:31;;;;;;;12.52;5.82;;;;;;;13.77;92.44;101251.81;5021575;28;20045;-72
2022/06/21 01:55:04;;;;;;;10.75;4.47;;;;;;;13.72;93.83;101243.91;5025214;28;20106;-71
2022/06/21 01:57:31;;;;;;;8.63;3.78;;;;;;;13.63;95.52;101249.09;5041011;28;20084;-71
2022/06/21 01:59:58;;;;;;;11.63;4.60;;;;;;;13.58;96.00;101246.75;5043667;28;20080;-72
2022/06/21 02:02:45;;;;;;;10.43;4.45;;;;;;;13.54;94.73;101246.00;5043742;28;20417;-71
2022/06/21 02:05:17;;;;;;;9.32;4.18;;;;;;;13.54;96.76;101236.84;5058497;28;20681;-71
2022/06/21 02:07:52;;;;;;;9.00;4.50;;;;;;;13.52;95.60;101231.69;5041463;28;20060;-72
2022/06/21 02:10:18;;;;;;;10.32;4.88;;;;;;;13.46;93.94;101233.31;5038739;28;20451;-72
2022/06/21 02:12:51;;;;;;;9.80;4.60;;;;;;;13.36;96.39;101228.59;5044872;28;20528;-72
2022/06/21 02:15:25;;;;;;;10.50;4.50;;;;;;;13.31;95.84;101220.69;5046800;28;20091;-72
2022/06/21 02:17:53;;;;;;;8.85;4.10;;;;;;;13.25;96.51;101222.28;5045979;28;20040;-72
2022/06/21 02:20:22;;;;;;;7.65;4.00;;;;;;;13.12;97.83;101226.69;5045083;28;20549;-72
2022/06/21 02:22:49;;;;;;;12.63;4.70;;;;;;;12.96;98.27;101227.13;5044873;28;20123;-71
2022/06/21 02:25:19;;;;;;;13.57;6.72;;;;;;;12.96;100.00;101217.97;5043977;28;20053;-72
2022/06/21 02:27:48;;;;;;;10.10;4.40;;;;;;;12.97;100.00;101227.91;5039011;28;20421;-71
2022/06/21 02:30:20;;;;;;;9.00;4.53;;;;;;;12.79;99.81;101241.84;5048088;28;20135;-71
2022/06/21 02:32:47;;;;;;;10.40;4.85;;;;;;;12.80;100.00;101239.84;5043407;28;20048;-71
2022/06/21 02:35:29;;;;;;;13.95;4.95;;;;;;;12.85;100.00;101231.91;5043708;28;20064;-72
2022/06/21 02:38:01;;;;;;;10.18;4.45;;;;;;;12.88;100.00;101235.88;5042497;28;20045;-72
2022/06/21 02:40:39;;;;;;;15.93;5.05;;;;;;;12.90;100.00;101231.50;5045700;28;20139;-72
2022/06/21 02:43:12;;;;;;;11.77;5.72;;;;;;;12.91;100.00;101232.28;5039472;28;20139;-71
2022/06/21 02:45:45;;;;;;;7.07;4.30;;;;;;;12.93;100.00;101229.91;5040009;28;20061;-71
2022/06/21 02:48:17;;;;;;;10.27;4.57;;;;;;;12.96;100.00;101229.88;5030744;28;20053;-72
2022/06/21 02:50:55;;;;;;;7.90;4.22;;;;;;;12.97;100.00;101236.25;5041608;28;20049;-72
2022/06/21 02:53:30;;;;;;;11.10;4.68;;;;;;;12.97;100.00;101239.03;5051309;28;20049;-72
2022/06/21 02:56:08;;;;;;;14.50;5.27;;;;;;;12.98;99.33;101251.72;5045880;28;20063;-72
2022/06/21 02:58:34;;;;;;;14.70;4.63;;;;;;;12.96;99.69;101254.88;5046276;28;20052;-72
2022/06/21 03:01:05;;;;;;;12.15;4.60;;;;;;;12.95;98.83;101255.28;5044335;28;20068;-71
2022/06/21 03:03:33;;;;;;;12.73;4.68;;;;;;;12.90;99.63;101250.94;5045290;28;20528;-71
2022/06/21 03:06:03;;;;;;;13.50;5.07;;;;;;;12.88;100.00;101250.56;5046358;28;20045;-71
2022/06/21 03:08:31;;;;;;;14.85;6.07;;;;;;;12.87;100.00;101246.16;5041844;28;20087;-72
2022/06/21 03:10:59;;;;;;;8.77;4.20;;;;;;;12.89;100.00;101237.44;5045474;28;20455;-72
2022/06/21 03:13:29;;;;;;;16.20;5.10;;;;;;;12.89;99.08;101248.53;5045650;28;20131;-71
2022/06/21 03:16:00;;;;;;;10.60;4.35;;;;;;;12.86;98.45;101246.59;5042478;28;20151;-72
2022/06/21 03:18:35;;;;;;;9.63;4.63;;;;;;;12.80;98.39;101245.41;5046480;28;20160;-72
2022/06/21 03:21:03;;;;;;;9.77;4.75;;;;;;;12.73;100.00;101239.88;5041735;28;20446;-72
2022/06/21 03:23:31;;;;;;;12.63;4.63;;;;;;;12.73;99.62;101245.44;5047344;28;20040;-72
2022/06/21 03:26:01;;;;;;;10.93;4.68;;;;;;;12.71;99.90;101237.50;5041837;28;20128;-71
2022/06/21 03:28:30;;;;;;;10.65;4.65;;;;;;;12.65;100.00;101239.09;5043250;28;20051;-71
2022/06/21 03:31:22;;;;;;;10.07;5.10;;;;;;;12.56;100.00;101222.03;5043863;28;20072;-71
2022/06/21 03:33:53;;;;;;;10.65;5.18;;;;;;;12.62;100.00;101222.41;5036115;28;20053;-71
2022/06/21 03:36:23;;;;;;;9.73;4.60;;;;;;;12.58;100.00;101219.66;5035822;28;20163;-72
2022/06/21 03:38:55;;;;;;;9.85;4.55;;;;;;;12.54;100.00;101220.84;5044084;28;20858;-71
2022/06/21 03:44:27;;;;;;;12.30;4.93;;;;;;;12.50;100.00;101208.97;5043741;28;20472;-72
2022/06/21 03:47:05;;;;;;;14.32;5.57;;;;;;;12.49;100.00;101201.84;5044507;28;20139;-71
2022/06/21 03:50:02;;;;;;;10.68;4.95;;;;;;;12.42;100.00;101183.19;5043402;28;20073;-71
2022/06/21 03:52:44;;;;;;;9.52;4.95;;;;;;;12.39;100.00;101178.44;5042874;28;20405;-71
2022/06/21 03:55:16;;;;;;;10.98;4.95;;;;;;;12.40;100.00;101188.38;5043126;28;20073;-71
2022/06/21 03:57:52;;;;;;;13.07;5.32;;;;;;;12.43;100.00;101184.00;5043704;28;20056;-72
2022/06/21 04:00:18;;;;;;;;;;;;;;;12.48;100.00;101186.34;5045742;28;20077;-71
2022/06/21 04:02:59;;;;;;;10.55;4.93;;;;;;;12.40;100.00;101191.16;5044215;28;19925;-71
2022/06/21 04:05:33;;;;;;;12.30;5.55;;;;;;;12.24;100.00;101195.50;5032364;28;20102;-71
2022/06/21 04:08:05;;;;;;;14.95;6.40;;;;;;;12.28;100.00;101196.28;5042685;28;20476;-70
2022/06/21 04:10:35;;;;;;;13.00;6.40;;;;;;;12.38;100.00;101196.28;5043576;28;20053;-72
2022/06/21 04:13:14;;;;;;;10.98;5.70;;;;;;;12.46;100.00;101188.75;5049073;28;20767;-72
2022/06/21 04:15:50;;;;;;;13.05;5.82;;;;;;;12.53;100.00;101199.84;5042005;28;20136;-72
2022/06/21 04:18:24;;;;;;;16.23;5.90;;;;;;;12.35;100.00;101215.69;5045346;28;20534;-71
2022/06/21 04:21:02;;;;;;;12.13;5.60;;;;;;;12.28;100.00;101210.97;5034972;28;20103;-71
2022/06/21 04:23:32;;;;;;;14.38;6.00;;;;;;;12.26;100.00;101218.88;5033001;28;20594;-72
2022/06/21 04:26:05;;;;;;;12.77;5.68;;;;;;;12.24;100.00;101237.09;5041051;28;20115;-71
2022/06/21 04:29:25;;;;;;;15.18;6.15;;;;;;;12.23;100.00;101249.41;5042727;28;20061;-72
2022/06/21 04:32:01;;;;;;;12.45;6.40;;;;;;;12.38;100.00;101242.66;5032453;28;20045;-72
2022/06/21 04:34:28;;;;;;;18.67;7.32;;;;;;;12.51;100.00;101252.19;5035046;28;20045;-71
2022/06/21 04:37:01;;;;;;;19.80;7.72;;;;;;;12.71;100.00;101245.03;5038611;28;20140;-71
2022/06/21 04:39:36;;;;;;;14.68;7.47;;;;;;;12.86;100.00;101246.59;5038385;28;20064;-72
2022/06/21 04:42:22;;;;;;;15.00;6.28;;;;;;;13.03;100.00;101248.56;5038376;28;20049;-73
2022/06/21 04:44:55;;;;;;;14.15;6.63;;;;;;;13.15;100.00;101234.22;5044150;28;20084;-72
2022/06/21 04:47:30;;;;;;;17.98;6.65;;;;;;;13.26;100.00;101231.44;5040459;28;20144;-73
2022/06/21 04:50:13;;;;;;;13.65;6.03;;;;;;;13.34;100.00;101227.41;5042728;28;20561;-73
2022/06/21 04:52:47;;;;;;;16.15;6.13;;;;;;;13.44;100.00;101223.78;5037456;28;20423;-73
2022/06/21 04:55:16;;;;;;;17.75;6.80;;;;;;;13.55;100.00;101233.66;5042926;28;20561;-73
2022/06/21 04:57:45;;;;;;;20.15;7.07;;;;;;;13.64;100.00;101222.91;5029620;28;20644;-72
2022/06/21 05:00:18;;;;;;;12.38;5.43;;;;;;;13.76;100.00;101219.63;5039299;28;20498;-72
2022/06/21 05:02:50;;;;;;;14.25;6.03;;;;;;;13.90;100.00;101221.56;5040145;28;20095;-72
2022/06/21 05:05:21;;;;;;;15.20;6.53;;;;;;;14.03;100.00;101220.66;5038415;28;20045;-72
2022/06/21 05:07:50;;;;;;;11.10;5.68;;;;;;;14.14;100.00;101203.88;5046989;28;20055;-72
2022/06/21 05:10:23;;;;;;;13.93;5.22;;;;;;;14.26;100.00;101192.28;5045163;28;20073;-72
2022/06/21 05:12:53;;;;;;;13.75;4.75;;;;;;;14.37;100.00;101177.06;5039716;28;20136;-72
2022/06/21 05:15:36;;;;;;;15.25;4.72;;;;;;;14.50;100.00;101180.13;5048409;28;20490;-73
2022/06/21 05:18:23;;;;;;;13.40;4.55;;;;;;;14.62;100.00;101193.53;5040065;28;20057;-73
2022/06/21 05:21:06;;;;;;;15.60;4.10;;;;;;;14.75;100.00;101191.81;5036829;28;20126;-73
2022/06/21 05:23:33;;;;;;;13.65;3.33;;;;;;;14.90;100.00;101193.22;5041800;28;20495;-72
2022/06/21 05:26:03;;;;;;;14.55;3.78;;;;;;;15.00;100.00;101195.91;5038305;28;20072;-74
2022/06/21 05:28:53;;;;;;;9.82;3.38;;;;;;;15.12;100.00;101186.97;5045769;28;20103;-73
2022/06/21 05:31:23;;;;;;;8.82;2.90;;;;;;;15.24;100.00;101188.44;5046158;28;20144;-73
2022/06/21 05:33:57;;;;;;;15.25;3.35;;;;;;;15.33;100.00;101197.88;5047369;28;20052;-73
2022/06/21 05:36:38;;;;;;;15.27;3.50;;;;;;;15.41;100.00;101202.19;5041644;28;20053;-73
2022/06/21 05:39:22;;;;;;;12.43;3.80;;;;;;;15.53;100.00;101193.25;5046163;28;20068;-74
2022/06/21 05:41:52;;;;;;;16.65;3.75;;;;;;;15.63;100.00;101185.97;5040286;28;20045;-72
2022/06/21 05:44:21;;;;;;;15.50;3.90;;;;;;;15.73;100.00;101185.00;5045416;28;20049;-74
2022/06/21 05:46:53;;;;;;;12.00;3.63;;;;;;;15.79;100.00;101182.53;5039258;28;20160;-77
2022/06/21 05:49:25;;;;;;;13.25;4.13;;;;;;;15.88;100.00;101174.41;5047258;28;20169;-75
2022/06/21 05:51:55;;;;;;;16.70;4.53;;;;;;;15.93;100.00;101179.53;5046874;28;20044;-75
2022/06/21 05:54:26;;;;;;;10.57;3.60;;;;;;;16.02;99.94;101185.34;5042661;28;20160;-76
2022/06/21 05:56:52;;;;;;;10.25;3.47;;;;;;;16.09;98.33;101180.44;5041099;28;20482;-76
2022/06/21 05:59:23;;;;;;;10.63;4.43;;;;;;;16.15;97.62;101175.97;5045789;28;20045;-75
2022/06/21 06:01:57;;;;;;;12.15;4.30;;;;;;;16.20;96.95;101180.28;5047565;28;20041;-74
2022/06/21 06:04:38;;;;;;;15.48;4.47;;;;;;;16.26;95.95;101173.00;5045373;28;20075;-75
2022/06/21 06:07:06;;;;;;;13.05;4.57;;;;;;;16.35;95.76;101176.81;5051609;28;20120;-75
2022/06/21 06:09:38;;;;;;;14.07;4.53;;;;;;;16.42;94.86;101187.06;5039387;28;20107;-74
2022/06/21 06:12:17;;;;;;;12.45;4.25;;;;;;;16.42;94.59;101201.88;5038099;28;20049;-76
2022/06/21 06:14:57;;;;;;;11.75;4.28;;;;;;;16.49;94.08;101189.75;5042966;28;20057;-76
2022/06/21 06:17:39;;;;;;;12.05;4.15;;;;;;;16.54;93.75;101189.28;5050326;28;20056;-75
2022/06/21 06:20:18;;;;;;;15.50;4.28;;;;;;;16.61;93.42;101195.53;5033712;28;20056;-75
2022/06/21 06:23:24;;;;;;;17.23;4.05;;;;;;;16.66;93.24;101205.41;5047375;28;20048;-77
2022/06/21 06:25:58;;;;;;;12.82;4.60;;;;;;;16.75;92.90;101208.47;5044370;28;20072;-76
2022/06/21 06:28:47;;;;;;;8.43;3.20;;;;;;;16.83;92.96;101202.31;5043258;28;20136;-76
2022/06/21 06:31:53;;;;;;;13.50;3.88;;;;;;;16.95;91.63;101206.47;5043162;28;20049;-75
2022/06/21 06:34:24;;;;;;;13.90;4.05;;;;;;;17.00;89.53;101205.97;5041719;28;20048;-76
2022/06/21 06:36:55;;;;;;;12.38;3.80;;;;;;;17.06;89.35;101212.66;5046054;28;20040;-77
2022/06/21 06:39:23;;;;;;;10.63;3.25;;;;;;;17.11;88.94;101215.72;5048781;28;20048;-75
2022/06/21 06:42:08;;;;;;;12.35;3.25;;;;;;;17.22;88.45;101207.91;5046308;28;20151;-71
2022/06/21 06:44:41;;;;;;;10.07;3.30;;;;;;;17.32;87.36;101217.31;5043186;28;20648;-73
2022/06/21 06:47:16;;;;;;;17.27;3.67;;;;;;;17.45;86.84;101221.06;5045690;28;20051;-74
2022/06/21 06:49:58;;;;;;;13.93;3.58;;;;;;;17.51;85.38;101222.91;5042326;28;20061;-74
2022/06/21 06:52:37;;;;;;;12.27;4.05;;;;;;;17.52;84.74;101226.50;5042156;28;20052;-73
2022/06/21 06:55:27;;;;;;;6.32;2.75;;;;;;;17.62;84.16;101231.09;5042402;28;20099;-73
2022/06/21 06:58:20;;;;;;;14.18;3.30;;;;;;;17.73;83.16;101234.44;5039192;28;20059;-73
2022/06/21 07:00:53;;;;;;;13.52;3.28;;;;;;;17.73;81.91;101238.03;5042490;28;20056;-73
2022/06/21 07:03:28;;;;;;;14.02;3.67;;;;;;;17.74;82.33;101250.78;5038507;28;20765;-74
2022/06/21 07:06:02;;;;;;;12.73;3.42;;;;;;;17.86;82.00;101255.72;5039647;28;20041;-74
2022/06/21 07:08:34;;;;;;;15.95;4.00;;;;;;;17.86;80.20;101254.94;5043513;28;20139;-75
2022/06/21 07:11:09;;;;;;;13.63;3.83;;;;;;;17.90;80.49;101253.66;5044353;28;20048;-73
2022/06/21 07:13:37;;;;;;;9.05;3.40;;;;;;;18.02;79.73;101255.75;5039262;28;20531;-73
2022/06/21 07:16:12;;;;;;;9.75;2.90;;;;;;;18.07;78.54;101250.84;5041695;28;20053;-74
2022/06/21 07:18:47;;;;;;;14.60;3.90;;;;;;;18.12;77.58;101247.53;5052404;28;20059;-73
2022/06/21 07:21:14;;;;;;;13.13;3.50;;;;;;;18.17;77.33;101236.59;5039296;28;20502;-74
2022/06/21 07:23:43;;;;;;;8.55;2.97;;;;;;;18.28;76.43;101233.53;5044085;28;20616;-73
2022/06/21 07:26:17;;;;;;;14.68;3.08;;;;;;;18.31;74.58;101227.06;5042390;28;20138;-73
2022/06/21 07:28:51;;;;;;;14.50;3.13;;;;;;;18.43;73.73;101227.19;5046974;28;20742;-73
2022/06/21 07:31:26;;;;;;;15.50;3.40;;;;;;;18.56;74.01;101224.47;5042249;28;20931;-74
2022/06/21 07:34:11;;;;;;;;;;;;;;;18.59;73.05;101224.38;5037226;28;20045;-71
2022/06/21 07:37:09;;;;;;;12.48;3.33;;;;;;;18.64;72.55;101229.44;5045028;28;20016;-72
2022/06/21 07:39:44;;;;;;;10.25;3.20;;;;;;;18.61;73.07;101221.13;5045607;28;20049;-73
2022/06/21 07:42:20;;;;;;;9.23;2.70;;;;;;;18.66;71.88;101226.22;5040313;28;20039;-73
2022/06/21 07:45:22;;;;;;;15.60;3.30;;;;;;;18.68;71.51;101232.94;5043895;28;20096;-73
2022/06/21 07:47:59;;;;;;;14.25;3.45;;;;;;;18.82;71.38;101232.56;5039841;28;20077;-70
2022/06/21 07:50:40;;;;;;;10.82;3.30;;;;;;;19.01;70.23;101236.47;5039998;28;20053;-74
2022/06/21 07:53:17;;;;;;;9.45;2.75;;;;;;;19.08;68.74;101231.47;5040340;28;20077;-74
2022/06/21 07:55:49;;;;;;;9.98;3.17;;;;;;;19.05;67.92;101229.53;5044948;28;20040;-74
2022/06/21 07:58:41;;;;;;;17.10;3.15;;;;;;;19.09;68.27;101221.81;5040072;28;20045;-74
2022/06/21 08:07:25;;;;;;;7.22;2.22;;;;;;;19.21;64.05;101220.28;5043353;28;20659;-75
2022/06/21 08:10:04;;;;;;;7.88;2.35;;;;;;;19.31;63.62;101211.56;5040661;28;20051;-75
2022/06/21 08:12:31;;;;;;;10.15;2.05;;;;;;;19.46;64.28;101209.13;5041280;28;20044;-75
2022/06/21 08:15:00;;;;;;;9.88;1.73;;;;;;;19.64;63.24;101195.38;5044053;28;20570;-75
2022/06/21 08:17:38;;;;;;;8.65;2.20;;;;;;;19.79;62.37;101204.91;5037323;28;20067;-75
2022/06/21 08:20:12;;;;;;;6.65;2.00;;;;;;;19.73;60.87;101199.09;5040451;28;20054;-73
2022/06/21 08:23:03;;;;;;;9.32;2.50;;;;;;;19.74;62.15;101189.41;5046093;28;20100;-74
2022/06/21 08:25:47;;;;;;;11.75;2.22;;;;;;;19.89;62.09;101190.56;5043925;28;20092;-73
2022/06/21 08:28:33;;;;;;;6.30;2.00;;;;;;;20.05;60.94;101190.41;5042087;28;20056;-75
2022/06/21 08:31:10;;;;;;;8.52;2.15;;;;;;;20.18;60.17;101179.97;5038557;28;20533;-74
2022/06/21 08:33:49;;;;;;;9.35;2.20;;;;;;;20.31;60.25;101188.38;5043000;28;20148;-74
2022/06/21 08:36:50;;;;;;;6.30;2.10;;;;;;;20.38;57.28;101184.56;5037055;28;20076;-74
2022/06/21 08:39:20;;;;;;;9.02;2.05;;;;;;;20.33;59.19;101183.91;5039830;28;20137;-73
2022/06/21 08:42:10;;;;;;;8.20;2.35;;;;;;;20.38;57.41;101178.94;5052582;28;20140;-74
2022/06/21 08:48:12;;;;;;;4.78;1.85;;;;;;;20.55;58.96;101180.38;5045338;28;20036;-73
2022/06/21 08:50:39;;;;;;;11.02;2.70;;;;;;;20.71;57.75;101177.38;5044711;28;20085;-72
2022/06/21 08:53:24;;;;;;;16.65;4.10;;;;;;;20.84;56.99;101166.84;5058881;28;20080;-73
2022/06/21 08:56:21;;;;;;;7.63;1.95;;;;;;;20.83;54.85;101156.84;5043631;28;20072;-75
2022/06/21 08:59:21;;;;;;;6.57;1.98;;;;;;;21.06;55.24;101164.88;5052353;28;20056;-73
2022/06/21 09:02:17;;;;;;;7.03;1.75;;;;;;;21.27;54.78;101169.72;5045444;28;20056;-72
2022/06/21 09:04:52;;;;;;;8.40;1.88;;;;;;;21.49;53.58;101159.97;5050911;28;20485;-73
2022/06/21 09:07:41;;;;;;;3.80;1.95;;;;;;;21.34;52.99;101161.78;5043005;28;20080;-73
2022/06/21 09:10:10;;;;;;;11.90;2.35;;;;;;;21.41;54.06;101157.91;5045197;28;20059;-73
2022/06/21 09:12:47;;;;;;;8.05;1.85;;;;;;;21.49;53.17;101153.56;5059411;28;20054;-73
2022/06/21 09:15:44;;;;;;;10.57;1.85;;;;;;;21.60;51.95;101142.69;5047486;28;20148;-74
2022/06/21 09:18:23;;;;;;;5.95;1.65;;;;;;;21.74;51.48;101139.31;5026704;28;20128;-72
2022/06/21 09:20:55;;;;;;;11.30;2.03;;;;;;;21.83;51.24;101139.34;5043621;28;20045;-75
2022/06/21 09:23:37;;;;;;;6.55;1.80;;;;;;;21.76;48.71;101137.59;5043605;28;20593;-70
2022/06/21 09:26:16;;;;;;;8.32;1.65;;;;;;;21.69;48.13;101123.78;5046616;28;20128;-75
2022/06/21 09:28:46;;;;;;;6.93;1.60;;;;;;;21.65;48.44;101128.78;5055005;28;20576;-73
2022/06/21 09:31:35;;;;;;;11.30;1.70;;;;;;;21.82;48.38;101127.31;5047304;28;20600;-73
2022/06/21 09:34:28;;;;;;;7.35;1.92;;;;;;;22.15;49.64;101121.91;5040306;28;20041;-76
2022/06/21 09:36:59;;;;;;;7.93;1.98;;;;;;;22.48;48.96;101122.91;5028667;28;20398;-74
2022/06/21 09:39:55;;;;;;;7.68;1.83;;;;;;;22.67;48.31;101118.84;5048287;28;20061;-76
2022/06/21 09:42:34;;;;;;;8.95;1.92;;;;;;;22.81;47.42;101108.97;5046071;28;20045;-74
2022/06/21 09:45:33;;;;;;;9.80;1.77;;;;;;;22.91;46.87;101110.53;5040097;28;20053;-74
2022/06/21 09:48:16;;;;;;;7.30;2.00;;;;;;;22.89;46.96;101119.47;5040399;28;20114;-74
2022/06/21 09:51:02;;;;;;;8.38;2.10;;;;;;;22.95;45.61;101120.41;5052310;28;20055;-74
2022/06/21 09:53:31;;;;;;;;;;;;;;;23.06;45.85;101117.06;5055756;28;20077;-74
2022/06/21 09:56:07;;;;;;;7.10;2.05;;;;;;;23.16;46.40;101110.94;5046181;28;19924;-74
2022/06/21 09:58:46;;;;;;;10.18;2.40;;;;;;;23.24;45.86;101106.56;5058009;28;20127;-74
2022/06/21 10:01:51;;;;;;;7.57;2.10;;;;;;;23.27;44.21;101094.31;5035921;28;20760;-74
2022/06/21 10:04:36;;;;;;;10.75;2.00;;;;;;;23.41;45.29;101082.34;5038237;28;20078;-74
2022/06/21 10:07:03;;;;;;;27.52;2.92;;;;;;;23.65;44.49;101071.13;5050297;28;20095;-74
2022/06/21 10:09:57;;;;;;;7.28;1.58;;;;;;;23.76;42.86;101074.94;5053936;28;20114;-75
2022/06/21 10:12:39;;;;;;;6.60;1.63;;;;;;;23.74;42.55;101071.03;5036536;28;20130;-77
2022/06/21 10:15:34;;;;;;;6.53;2.20;;;;;;;23.96;42.04;101075.19;5023293;28;20175;-75
2022/06/21 10:18:31;;;;;;;9.35;1.85;;;;;;;24.11;41.91;101056.25;5016330;28;20541;-74
2022/06/21 10:21:36;;;;;;;7.40;1.98;;;;;;;24.03;42.06;101054.25;5021372;28;20052;-76
2022/06/21 10:24:12;;;;;;;7.70;2.10;;;;;;;23.68;43.02;101056.78;4982668;28;20060;-76
2022/06/21 10:27:13;;;;;;;7.18;1.98;;;;;;;23.54;42.77;101040.56;5017567;28;21420;-75
2022/06/21 10:30:25;;;;;;;9.73;1.98;;;;;;;23.63;43.44;101043.34;5016091;28;20044;-77
2022/06/21 10:33:01;;;;;;;5.75;1.70;;;;;;;23.76;43.40;101029.75;5005711;28;20049;-76
2022/06/21 10:35:44;;;;;;;9.07;1.80;;;;;;;23.94;42.47;101035.31;5016118;28;20049;-75
2022/06/21 10:38:32;;;;;;;7.22;1.67;;;;;;;23.95;41.07;101036.88;5018643;28;20378;-74
2022/06/21 10:41:15;;;;;;;6.85;2.00;;;;;;;24.05;41.75;101043.25;5013964;28;20441;-77
2022/06/21 10:44:03;;;;;;;7.22;1.52;;;;;;;24.31;40.99;101050.75;5016642;28;20072;-74
2022/06/21 10:46:49;;;;;;;7.85;1.92;;;;;;;24.50;41.23;101040.81;5016411;28;20151;-76
2022/06/21 10:49:40;;;;;;;11.18;1.75;;;;;;;24.72;40.99;101058.28;5018486;28;20064;-76
2022/06/21 10:52:47;;;;;;;11.07;1.85;;;;;;;24.10;40.89;101053.91;5015742;28;20060;-75
2022/06/21 10:55:22;;;;;;;5.05;2.03;;;;;;;24.42;41.37;101064.31;5015976;28;20540;-76
2022/06/21 10:58:27;;;;;;;12.23;2.67;;;;;;;24.69;41.47;101069.75;5015227;28;20802;-76
2022/06/21 11:01:31;;;;;;;8.00;2.33;;;;;;;24.66;39.65;101065.88;4951579;28;20076;-72
2022/06/21 11:04:16;;;;;;;6.43;2.13;;;;;;;24.66;39.50;101076.38;5013691;28;20796;-72
2022/06/21 11:06:53;;;;;;;7.50;2.45;;;;;;;24.50;39.47;101082.50;5015327;28;20059;-76
2022/06/21 11:09:32;;;;;;;8.98;2.35;;;;;;;24.48;39.42;101062.38;5020117;28;20132;-74
2022/06/21 11:15:42;;;;;;;9.35;2.40;;;;;;;24.65;39.22;101058.66;5016777;28;20049;-75
2022/06/21 11:18:24;;;;;;;8.27;2.10;;;;;;;24.82;39.13;101062.56;5016176;28;20159;-75
2022/06/21 11:21:03;;;;;;;9.10;2.25;;;;;;;25.18;39.21;101058.56;5016626;28;20057;-77
2022/06/21 11:23:44;;;;;;;11.10;2.20;;;;;;;25.40;38.32;101041.94;5018953;28;20048;-77
2022/06/21 11:26:24;;;;;;;8.43;2.13;;;;;;;25.45;37.82;101035.59;5032088;28;20176;-78
2022/06/21 11:29:13;;;;;;;12.07;2.75;;;;;;;25.76;39.11;101027.28;5030884;28;20098;-75
2022/06/21 11:31:55;;;;;;;9.02;2.47;;;;;;;25.94;38.33;101035.50;5014042;28;20049;-75
2022/06/21 11:34:57;;;;;;;5.55;2.13;;;;;;;26.18;38.06;101027.59;5019400;28;20072;-77
2022/06/21 11:37:30;;;;;;;9.93;2.22;;;;;;;26.60;37.71;101032.72;5008946;28;20137;-71
2022/06/21 11:40:16;;;;;;;11.38;2.45;;;;;;;27.05;37.67;101029.84;5016264;28;20102;-75
2022/06/21 11:42:50;;;;;;;4.90;2.03;;;;;;;27.40;36.56;101032.44;5011290;28;20999;-74
2022/06/21 11:45:22;;;;;;;7.22;2.10;;;;;;;27.80;35.40;101032.19;5013769;28;20041;-76
2022/06/21 11:48:27;;;;;;;5.35;1.90;;;;;;;28.14;33.55;101027.47;5039830;28;20059;-76
2022/06/21 11:51:11;;;;;;;14.25;3.10;;;;;;;28.53;33.98;101014.16;5020064;28;20107;-76
2022/06/21 11:53:41;;;;;;;9.00;1.80;;;;;;;29.07;34.41;101015.53;5017913;28;20057;-76
2022/06/21 11:56:33;;;;;;;5.38;2.20;;;;;;;29.20;32.04;101025.13;5023592;28;20049;-77
2022/06/21 11:59:21;;;;;;;5.80;2.22;;;;;;;29.12;32.57;101020.47;5015010;28;20545;-76
2022/06/21 12:02:00;;;;;;;8.32;2.20;;;;;;;28.40;32.70;101028.06;5030690;28;20049;-76
2022/06/21 12:04:44;;;;;;;7.13;2.47;;;;;;;27.67;33.57;101031.84;5025586;28;20045;-75
2022/06/21 12:07:17;;;;;;;6.57;1.73;;;;;;;27.12;34.30;101035.06;5023635;28;20049;-76
2022/06/21 12:09:50;;;;;;;8.98;2.45;;;;;;;26.90;35.73;101040.53;5025551;28;20049;-77
2022/06/21 12:12:35;;;;;;;8.90;2.00;;;;;;;26.94;35.91;101048.84;5023062;28;20057;-75
2022/06/21 12:15:30;;;;;;;;;;;;;;;26.63;35.05;101049.53;5037188;28;20494;-74
2022/06/21 12:18:20;;;;;;;10.38;1.92;;;;;;;26.28;36.60;101048.88;5045050;28;19967;-75
2022/06/21 12:20:52;;;;;;;5.82;1.50;;;;;;;26.21;36.69;101043.63;5046779;28;20059;-74
2022/06/21 12:23:35;;;;;;;8.32;1.90;;;;;;;26.13;35.90;101036.84;5044885;28;20055;-74